Time;durP1;ratioP1;P1;durP2;ratioP2;P2;SDS_P1;SDS_P2;PMS_P1;PMS_P2;Temp;Humidity;BMP_temperature;BMP_pressure;BME280_temperature;BME280_humidity;BME280_pressure;Samples;Min_cycle;Max_cycle;Signal;HPM_P1;HPM_P2
2021/12/10 00:00:20;;;;;;;5.63;3.17;;;4.50;99.90;;;;;;5065235;28;20210;-66
2021/12/10 00:02:48;;;;;;;2.35;1.75;;;4.50;99.90;;;;;;5067518;28;20726;-67
2021/12/10 00:05:17;;;;;;;4.75;2.70;;;4.50;99.90;;;;;;5068728;28;20205;-67
2021/12/10 00:07:45;;;;;;;2.38;2.13;;;4.50;99.90;;;;;;5074487;28;20315;-67
2021/12/10 00:10:15;;;;;;;4.18;2.35;;;4.40;99.90;;;;;;5067037;28;20289;-66
2021/12/10 00:12:50;;;;;;;1.55;1.45;;;4.30;99.90;;;;;;5061439;28;20645;-67
2021/12/10 00:15:17;;;;;;;2.42;1.70;;;4.30;99.90;;;;;;5068974;28;20655;-66
2021/12/10 00:17:44;;;;;;;2.15;1.98;;;4.30;99.90;;;;;;5065671;28;20225;-66
2021/12/10 00:20:12;;;;;;;1.40;1.27;;;4.30;99.90;;;;;;5065242;28;20202;-67
2021/12/10 00:22:46;;;;;;;2.95;2.35;;;4.20;99.90;;;;;;5068349;28;20285;-67
2021/12/10 00:25:17;;;;;;;1.55;1.45;;;4.30;99.90;;;;;;5068313;28;20273;-66
2021/12/10 00:27:46;;;;;;;1.50;1.40;;;4.30;99.90;;;;;;5057948;28;20592;-67
2021/12/10 00:30:18;;;;;;;2.88;1.73;;;4.30;99.90;;;;;;5055692;28;20575;-67
2021/12/10 00:32:49;;;;;;;1.38;1.08;;;4.30;99.90;;;;;;5054372;28;20224;-67
2021/12/10 00:35:20;;;;;;;2.15;1.13;;;4.20;99.90;;;;;;5071700;28;20224;-67
2021/12/10 00:37:47;;;;;;;1.70;1.60;;;4.20;99.90;;;;;;5072359;28;20714;-67
2021/12/10 00:40:17;;;;;;;1.75;1.65;;;4.10;99.90;;;;;;5077355;28;20217;-66
2021/12/10 00:42:44;;;;;;;2.78;2.58;;;4.10;99.90;;;;;;5079232;28;20293;-66
2021/12/10 00:45:15;;;;;;;3.38;1.13;;;4.10;99.90;;;;;;5066419;28;20204;-67
2021/12/10 00:47:43;;;;;;;2.55;1.40;;;4.00;99.90;;;;;;5063894;28;20302;-66
2021/12/10 00:50:13;;;;;;;3.42;1.73;;;3.90;99.90;;;;;;5065957;28;20202;-66
2021/12/10 00:52:42;;;;;;;5.50;2.08;;;3.90;99.90;;;;;;5060195;28;20295;-66
2021/12/10 00:55:10;;;;;;;1.80;1.30;;;3.90;99.90;;;;;;5064050;28;20258;-66
2021/12/10 00:57:37;;;;;;;2.95;2.60;;;3.80;99.90;;;;;;5060852;28;20241;-66
2021/12/10 01:00:05;;;;;;;2.45;2.20;;;3.80;99.90;;;;;;5050530;28;20202;-66
2021/12/10 01:02:33;;;;;;;6.38;1.73;;;3.80;99.90;;;;;;5059714;28;20199;-67
2021/12/10 01:05:00;;;;;;;2.25;2.05;;;3.80;99.90;;;;;;5061641;28;20215;-67
2021/12/10 01:07:32;;;;;;;2.03;1.75;;;3.70;99.90;;;;;;5058793;28;20217;-67
2021/12/10 01:10:04;;;;;;;1.73;1.63;;;3.60;99.90;;;;;;5062685;28;20200;-67
2021/12/10 01:12:35;;;;;;;2.42;1.55;;;3.50;99.90;;;;;;5066387;28;20290;-66
2021/12/10 01:15:35;;;;;;;2.22;1.65;;;3.50;99.90;;;;;;5068241;28;20619;-66
2021/12/10 01:26:41;;;;;;;5.47;2.20;;;3.80;99.90;;;;;;5066341;28;20577;-66
2021/12/10 01:29:10;;;;;;;1.65;1.55;;;3.90;99.90;;;;;;5058500;28;20228;-66
2021/12/10 01:31:38;;;;;;;1.45;1.30;;;3.90;99.90;;;;;;5065453;28;20245;-68
2021/12/10 01:34:07;;;;;;;1.35;1.15;;;3.90;99.90;;;;;;5078812;28;20200;-66
2021/12/10 01:36:34;;;;;;;1.23;1.13;;;4.00;99.90;;;;;;5074399;28;20545;-66
2021/12/10 01:39:02;;;;;;;1.55;1.45;;;4.00;99.90;;;;;;5069278;28;20639;-67
2021/12/10 01:41:34;;;;;;;1.50;1.40;;;4.10;99.90;;;;;;5070143;28;20199;-67
2021/12/10 01:44:11;;;;;;;1.48;1.40;;;4.10;99.90;;;;;;5080741;28;20230;-72
2021/12/10 01:46:40;;;;;;;1.25;0.75;;;4.10;99.90;;;;;;5071140;28;20209;-67
2021/12/10 01:49:12;;;;;;;1.52;1.42;;;4.10;99.90;;;;;;5072554;28;20705;-67
2021/12/10 01:51:40;;;;;;;1.63;1.38;;;4.10;99.90;;;;;;5085049;28;20797;-67
2021/12/10 01:54:13;;;;;;;1.25;1.15;;;4.10;99.90;;;;;;5079182;28;20227;-66
2021/12/10 01:56:41;;;;;;;1.42;1.33;;;4.10;99.90;;;;;;5066531;28;20263;-66
2021/12/10 01:59:11;;;;;;;2.22;1.58;;;4.10;99.90;;;;;;5082449;28;20247;-71
2021/12/10 02:01:41;;;;;;;3.72;1.30;;;4.10;99.90;;;;;;5083618;28;20193;-68
2021/12/10 02:04:12;;;;;;;3.38;2.70;;;4.10;99.90;;;;;;5076670;28;20588;-67
2021/12/10 02:06:40;;;;;;;2.95;2.05;;;4.10;99.90;;;;;;5076352;28;20326;-66
2021/12/10 02:09:08;;;;;;;2.05;1.40;;;4.20;99.90;;;;;;5082367;28;20227;-67
2021/12/10 02:11:34;;;;;;;4.72;1.98;;;4.10;99.90;;;;;;5078939;28;20255;-67
2021/12/10 02:14:01;;;;;;;4.13;1.38;;;4.10;99.90;;;;;;5059674;28;20271;-68
2021/12/10 02:16:29;;;;;;;2.85;2.00;;;4.10;99.90;;;;;;5073817;28;20206;-67
2021/12/10 02:18:56;;;;;;;1.70;1.40;;;4.00;99.90;;;;;;5081209;28;20228;-67
2021/12/10 02:21:27;;;;;;;1.55;1.02;;;4.00;99.90;;;;;;5081564;28;20201;-67
2021/12/10 02:23:57;;;;;;;2.13;1.75;;;3.90;99.90;;;;;;5072705;28;20442;-67
2021/12/10 02:26:26;;;;;;;1.20;1.20;;;3.80;99.90;;;;;;5066402;28;20708;-66
2021/12/10 02:28:54;;;;;;;1.15;0.82;;;3.70;99.90;;;;;;5080008;28;20226;-67
2021/12/10 02:31:22;;;;;;;0.73;0.73;;;3.70;99.90;;;;;;5084268;28;20197;-67
2021/12/10 02:33:49;;;;;;;1.35;0.98;;;3.60;99.90;;;;;;5074336;28;20300;-67
2021/12/10 02:36:15;;;;;;;1.65;1.55;;;3.60;99.90;;;;;;5082795;28;20209;-68
2021/12/10 02:38:46;;;;;;;1.13;0.80;;;3.60;99.90;;;;;;5069120;28;20294;-67
2021/12/10 02:41:14;;;;;;;6.05;1.55;;;3.50;99.90;;;;;;5067073;28;20202;-67
2021/12/10 02:43:41;;;;;;;2.28;1.23;;;3.50;99.90;;;;;;5060672;28;20210;-67
2021/12/10 02:46:08;;;;;;;0.65;0.65;;;3.50;99.90;;;;;;5071759;28;20246;-67
2021/12/10 02:48:35;;;;;;;4.95;2.05;;;3.50;99.90;;;;;;5070251;28;20239;-67
2021/12/10 02:51:04;;;;;;;1.17;0.90;;;3.50;99.90;;;;;;5070137;28;20198;-68
2021/12/10 02:53:35;;;;;;;1.35;1.25;;;3.50;99.90;;;;;;5075160;28;20224;-67
2021/12/10 02:56:04;;;;;;;4.45;1.17;;;3.50;99.90;;;;;;5060439;28;20212;-67
2021/12/10 02:58:31;;;;;;;3.30;0.68;;;3.50;99.90;;;;;;5075006;28;20233;-67
2021/12/10 03:01:02;;;;;;;0.60;0.55;;;3.50;99.90;;;;;;5065751;28;20336;-68
2021/12/10 03:03:29;;;;;;;0.85;0.85;;;3.50;99.90;;;;;;5074901;28;20189;-67
2021/12/10 03:05:57;;;;;;;6.60;0.80;;;3.50;99.90;;;;;;5064025;28;20563;-67
2021/12/10 03:08:24;;;;;;;1.08;0.82;;;3.50;99.90;;;;;;5068335;28;20222;-68
2021/12/10 03:10:51;;;;;;;4.22;1.20;;;3.50;99.90;;;;;;5063799;28;20203;-66
2021/12/10 03:13:19;;;;;;;2.38;1.58;;;3.60;99.90;;;;;;5056607;28;20299;-66
2021/12/10 03:15:46;;;;;;;1.00;1.00;;;3.60;99.90;;;;;;5039755;28;20199;-67
2021/12/10 03:18:17;;;;;;;1.65;0.80;;;3.70;99.90;;;;;;5046893;28;20228;-66
2021/12/10 03:20:44;;;;;;;1.42;0.70;;;3.80;99.90;;;;;;5039161;28;20233;-67
2021/12/10 03:23:12;;;;;;;1.35;1.23;;;3.70;99.90;;;;;;5041966;28;20284;-67
2021/12/10 03:25:39;;;;;;;0.50;0.47;;;3.80;99.90;;;;;;5037861;28;20197;-67
2021/12/10 03:28:06;;;;;;;1.40;0.93;;;3.80;99.90;;;;;;5043391;28;20229;-70
2021/12/10 03:30:37;;;;;;;0.82;0.50;;;3.80;99.90;;;;;;5042004;28;20235;-65
2021/12/10 03:33:04;;;;;;;0.73;0.47;;;3.80;99.90;;;;;;5036719;28;20224;-65
2021/12/10 03:35:34;;;;;;;1.42;1.02;;;3.80;99.90;;;;;;5045227;28;20296;-67
2021/12/10 03:38:05;;;;;;;0.50;0.50;;;3.80;99.90;;;;;;5039866;28;20289;-66
2021/12/10 03:40:33;;;;;;;0.65;0.65;;;3.70;99.90;;;;;;5037079;28;20205;-67
2021/12/10 03:43:03;;;;;;;0.60;0.60;;;3.70;99.90;;;;;;5036383;28;20205;-67
2021/12/10 03:45:35;;;;;;;0.70;0.70;;;3.70;99.90;;;;;;5038589;28;20208;-66
2021/12/10 03:48:08;;;;;;;11.65;1.17;;;3.70;99.90;;;;;;5037610;28;20704;-66
2021/12/10 03:50:35;;;;;;;0.60;0.60;;;3.70;99.90;;;;;;5038146;28;20206;-67
2021/12/10 03:53:02;;;;;;;0.68;0.60;;;3.80;99.90;;;;;;5036942;28;20224;-67
2021/12/10 03:55:29;;;;;;;0.75;0.75;;;3.80;99.90;;;;;;5037251;28;20689;-66
2021/12/10 03:57:57;;;;;;;1.95;1.48;;;3.80;99.90;;;;;;5035410;28;20378;-65
2021/12/10 04:00:30;;;;;;;2.72;0.65;;;3.90;99.90;;;;;;5036778;28;20338;-66
2021/12/10 04:02:59;;;;;;;0.60;0.60;;;3.90;99.90;;;;;;5035027;28;20653;-66
2021/12/10 04:05:26;;;;;;;4.32;0.95;;;3.80;99.90;;;;;;5041108;28;20204;-66
2021/12/10 04:07:53;;;;;;;2.35;0.60;;;3.80;99.90;;;;;;5038254;28;20229;-65
2021/12/10 04:10:20;;;;;;;2.08;0.65;;;3.80;99.90;;;;;;5037737;28;20205;-67
2021/12/10 04:12:47;;;;;;;2.05;1.27;;;3.80;99.90;;;;;;5035193;28;20229;-66
2021/12/10 04:15:17;;;;;;;0.70;0.65;;;3.90;99.90;;;;;;5035096;28;20216;-66
2021/12/10 04:17:44;;;;;;;3.65;0.63;;;3.90;99.90;;;;;;5037276;28;20727;-66
2021/12/10 04:20:13;;;;;;;1.33;1.20;;;3.90;99.90;;;;;;5036066;28;20271;-67
2021/12/10 04:22:42;;;;;;;3.80;1.00;;;3.90;99.90;;;;;;5040096;28;20259;-66
2021/12/10 04:25:09;;;;;;;0.70;0.60;;;3.90;99.90;;;;;;5051090;28;20231;-66
2021/12/10 04:27:37;;;;;;;1.58;1.00;;;3.90;99.90;;;;;;5051364;28;20237;-65
2021/12/10 04:30:06;;;;;;;1.38;0.98;;;3.90;99.90;;;;;;5043333;28;20198;-66
2021/12/10 04:32:33;;;;;;;0.40;0.40;;;3.90;99.90;;;;;;5040917;28;20280;-68
2021/12/10 04:35:00;;;;;;;2.28;0.70;;;4.00;99.90;;;;;;5042109;28;20209;-65
2021/12/10 04:37:28;;;;;;;1.25;0.88;;;4.00;99.90;;;;;;5040639;28;20278;-64
2021/12/10 04:39:54;;;;;;;0.73;0.40;;;4.00;99.90;;;;;;5035871;28;20228;-66
2021/12/10 04:42:24;;;;;;;1.85;1.65;;;4.00;99.90;;;;;;5036754;28;20198;-66
2021/12/10 04:44:53;;;;;;;0.55;0.55;;;4.10;99.90;;;;;;5039798;28;20362;-65
2021/12/10 04:47:20;;;;;;;1.08;0.95;;;4.10;99.90;;;;;;5043044;28;20210;-65
2021/12/10 04:49:47;;;;;;;2.05;1.10;;;4.10;99.90;;;;;;5037267;28;20244;-65
2021/12/10 04:52:14;;;;;;;2.03;1.30;;;4.10;99.90;;;;;;5036909;28;20277;-66
2021/12/10 04:54:43;;;;;;;1.02;0.90;;;4.10;99.90;;;;;;5036736;28;20889;-66
2021/12/10 04:57:10;;;;;;;6.50;1.67;;;4.00;99.90;;;;;;5035060;28;20986;-65
2021/12/10 04:59:38;;;;;;;2.08;1.50;;;4.00;99.90;;;;;;5034439;28;20261;-66
2021/12/10 05:02:08;;;;;;;1.00;0.88;;;3.90;99.90;;;;;;5036594;28;20205;-65
2021/12/10 05:04:35;;;;;;;1.50;0.93;;;3.90;99.90;;;;;;5037425;28;20224;-66
2021/12/10 05:07:04;;;;;;;1.10;1.02;;;3.80;99.90;;;;;;5040617;28;20283;-65
2021/12/10 05:09:31;;;;;;;2.88;1.15;;;3.70;99.90;;;;;;5037433;28;20494;-66
2021/12/10 05:12:01;;;;;;;0.80;0.80;;;3.60;99.90;;;;;;5035052;28;20303;-65
2021/12/10 05:14:28;;;;;;;1.10;1.02;;;3.60;99.90;;;;;;5034801;28;20234;-67
2021/12/10 05:16:58;;;;;;;1.35;0.60;;;3.50;99.90;;;;;;5036183;28;20617;-66
2021/12/10 05:19:27;;;;;;;2.47;1.20;;;3.50;99.90;;;;;;5045397;28;20220;-66
2021/12/10 05:21:54;;;;;;;1.50;0.70;;;3.40;99.90;;;;;;5034475;28;21150;-66
2021/12/10 05:24:21;;;;;;;1.83;1.25;;;3.40;99.90;;;;;;5035936;28;21022;-65
2021/12/10 05:26:49;;;;;;;10.00;0.80;;;3.40;99.90;;;;;;5058209;28;20714;-66
2021/12/10 05:29:17;;;;;;;7.55;2.08;;;3.40;99.90;;;;;;5065095;28;20272;-66
2021/12/10 05:31:46;;;;;;;0.80;0.80;;;3.30;99.90;;;;;;5056629;28;20532;-66
2021/12/10 05:34:14;;;;;;;1.25;0.90;;;3.30;99.90;;;;;;5055767;28;20214;-66
2021/12/10 05:36:41;;;;;;;5.35;1.88;;;3.30;99.90;;;;;;5063572;28;20268;-66
2021/12/10 05:39:11;;;;;;;1.55;1.45;;;3.20;99.90;;;;;;5061809;28;20229;-66
2021/12/10 05:41:38;;;;;;;1.45;1.33;;;3.20;99.90;;;;;;5055698;28;20227;-73
2021/12/10 05:44:05;;;;;;;1.85;1.75;;;3.20;99.90;;;;;;5057537;28;20277;-67
2021/12/10 05:46:33;;;;;;;1.50;1.00;;;3.20;99.90;;;;;;5058050;28;20293;-67
2021/12/10 05:49:01;;;;;;;1.67;1.58;;;3.10;99.90;;;;;;5076329;28;20345;-67
2021/12/10 05:51:28;;;;;;;1.15;0.90;;;3.20;99.90;;;;;;5062090;28;20215;-69
2021/12/10 05:53:54;;;;;;;2.17;1.10;;;3.10;99.90;;;;;;5058111;28;20265;-68
2021/12/10 05:56:21;;;;;;;4.15;2.70;;;3.10;99.90;;;;;;5062856;28;20211;-68
2021/12/10 05:58:48;;;;;;;2.00;1.42;;;3.10;99.90;;;;;;5066804;22;20237;-66
2021/12/10 06:01:17;;;;;;;1.35;1.25;;;3.10;99.90;;;;;;5049684;28;20652;-68
2021/12/10 06:03:51;;;;;;;1.13;1.05;;;3.10;99.90;;;;;;5049363;28;20253;-68
2021/12/10 06:06:18;;;;;;;1.10;1.10;;;3.10;99.90;;;;;;5052354;28;20226;-68
2021/12/10 06:08:45;;;;;;;3.33;1.08;;;3.10;99.90;;;;;;5052589;28;20576;-68
2021/12/10 06:11:12;;;;;;;4.63;1.00;;;3.00;99.90;;;;;;5042339;28;20255;-66
2021/12/10 06:13:39;;;;;;;0.50;0.50;;;3.00;99.90;;;;;;5046640;28;20225;-67
2021/12/10 06:16:07;;;;;;;1.67;0.88;;;3.00;99.90;;;;;;5043111;28;20208;-69
2021/12/10 06:18:34;;;;;;;4.07;1.42;;;3.00;99.90;;;;;;5035773;28;20225;-67
2021/12/10 06:21:03;;;;;;;1.95;1.67;;;3.00;99.90;;;;;;5048201;28;20212;-67
2021/12/10 06:23:29;;;;;;;0.80;0.80;;;3.00;99.90;;;;;;5054706;28;20210;-67
2021/12/10 06:25:56;;;;;;;1.15;1.15;;;3.00;99.90;;;;;;5045824;28;20207;-70
2021/12/10 06:28:23;;;;;;;1.75;1.33;;;2.90;99.90;;;;;;5042176;28;20977;-69
2021/12/10 06:30:52;;;;;;;0.65;0.65;;;2.90;99.90;;;;;;5045435;28;20729;-68
2021/12/10 06:33:21;;;;;;;1.67;1.15;;;2.90;99.90;;;;;;5048879;28;20225;-69
2021/12/10 06:35:51;;;;;;;1.23;1.13;;;2.90;99.90;;;;;;5042977;28;20255;-67
2021/12/10 06:38:22;;;;;;;2.58;1.85;;;2.90;99.90;;;;;;5045849;28;20225;-68
2021/12/10 06:40:50;;;;;;;1.90;1.48;;;2.90;99.90;;;;;;5043992;28;20689;-68
2021/12/10 06:43:17;;;;;;;0.98;0.95;;;2.90;99.90;;;;;;5043625;28;20267;-68
2021/12/10 06:45:45;;;;;;;1.42;0.88;;;2.90;99.90;;;;;;5037418;28;20204;-66
2021/12/10 06:48:14;;;;;;;2.42;1.17;;;2.90;99.90;;;;;;5037680;28;20218;-67
2021/12/10 06:50:43;;;;;;;1.00;1.00;;;2.90;99.90;;;;;;5046040;28;20196;-67
2021/12/10 06:53:10;;;;;;;2.55;0.80;;;2.90;99.90;;;;;;5048015;28;20250;-66
2021/12/10 06:55:39;;;;;;;1.58;0.73;;;2.90;99.90;;;;;;5046489;28;20278;-65
2021/12/10 06:58:07;;;;;;;2.90;0.90;;;2.90;99.90;;;;;;5047115;28;20270;-68
2021/12/10 07:00:40;;;;;;;2.78;0.90;;;2.90;99.90;;;;;;5039984;28;20205;-67
2021/12/10 07:03:08;;;;;;;1.75;1.13;;;3.00;99.90;;;;;;5042154;28;21420;-70
2021/12/10 07:05:35;;;;;;;1.05;0.70;;;3.00;99.90;;;;;;5045546;28;20198;-70
2021/12/10 07:08:02;;;;;;;0.60;0.60;;;3.10;99.90;;;;;;5040568;28;20854;-65
2021/12/10 07:10:29;;;;;;;0.70;0.70;;;3.10;99.90;;;;;;5043755;28;20271;-68
2021/12/10 07:12:57;;;;;;;1.70;0.95;;;3.10;99.90;;;;;;5043449;28;20632;-68
2021/12/10 07:15:23;;;;;;;2.60;1.13;;;3.10;99.90;;;;;;5048389;28;20211;-68
2021/12/10 07:17:52;;;;;;;0.70;0.50;;;3.10;99.90;;;;;;5047876;28;20202;-69
2021/12/10 07:20:21;;;;;;;1.88;1.10;;;3.10;99.90;;;;;;5056149;28;20230;-69
2021/12/10 07:22:48;;;;;;;2.47;1.23;;;3.10;99.90;;;;;;5046163;28;20229;-68
2021/12/10 07:25:15;;;;;;;1.73;1.63;;;3.10;99.90;;;;;;5050216;28;20202;-68
2021/12/10 07:27:42;;;;;;;2.47;1.23;;;3.20;99.90;;;;;;5054573;28;20302;-69
2021/12/10 07:30:11;;;;;;;4.10;1.50;;;3.20;99.90;;;;;;5052709;28;20245;-66
2021/12/10 07:32:38;;;;;;;1.40;1.30;;;3.20;99.90;;;;;;5046164;28;20235;-68
2021/12/10 07:35:06;;;;;;;3.17;1.25;;;3.20;99.90;;;;;;5047823;28;20226;-69
2021/12/10 07:37:33;;;;;;;3.88;1.10;;;3.20;99.90;;;;;;5050214;28;20253;-68
2021/12/10 07:40:01;;;;;;;1.48;1.38;;;3.30;99.90;;;;;;5046553;28;20224;-70
2021/12/10 07:42:27;;;;;;;1.45;0.75;;;3.30;99.90;;;;;;5042620;28;20205;-68
2021/12/10 07:44:56;;;;;;;1.02;0.90;;;3.40;99.90;;;;;;5046836;28;20201;-69
2021/12/10 07:47:24;;;;;;;1.15;0.82;;;3.40;99.90;;;;;;5051968;28;20208;-68
2021/12/10 07:49:53;;;;;;;0.85;0.82;;;3.50;99.90;;;;;;5049994;28;20231;-68
2021/12/10 07:52:23;;;;;;;1.50;0.70;;;3.50;99.90;;;;;;5050369;28;20198;-68
2021/12/10 07:54:51;;;;;;;4.85;0.63;;;3.50;99.90;;;;;;5050784;28;20313;-67
2021/12/10 07:57:19;;;;;;;1.15;0.82;;;3.60;99.90;;;;;;5049444;28;20213;-69
2021/12/10 07:59:48;;;;;;;1.35;0.85;;;3.60;99.90;;;;;;5048768;28;20227;-69
2021/12/10 08:02:15;;;;;;;1.25;1.00;;;3.70;99.90;;;;;;5044948;28;20202;-69
2021/12/10 08:04:43;;;;;;;0.88;0.88;;;3.70;99.90;;;;;;5049703;28;20291;-68
2021/12/10 08:07:12;;;;;;;0.75;0.75;;;3.70;99.90;;;;;;5048084;28;20216;-69
2021/12/10 08:09:40;;;;;;;0.63;0.57;;;3.70;99.90;;;;;;5045121;28;20245;-69
2021/12/10 08:12:07;;;;;;;1.13;1.13;;;3.70;99.90;;;;;;5044038;28;20223;-67
2021/12/10 08:14:34;;;;;;;0.52;0.50;;;3.70;99.90;;;;;;5048984;28;20224;-70
2021/12/10 08:17:01;;;;;;;0.82;0.63;;;3.70;99.90;;;;;;5050809;28;20217;-69
2021/12/10 08:19:28;;;;;;;1.67;0.73;;;3.70;99.90;;;;;;5049344;28;20283;-68
2021/12/10 08:21:56;;;;;;;1.50;1.40;;;3.70;99.90;;;;;;5050440;28;20207;-68
2021/12/10 08:24:22;;;;;;;2.65;0.88;;;3.80;99.90;;;;;;5046853;28;20204;-67
2021/12/10 08:26:49;;;;;;;0.90;0.90;;;3.80;99.90;;;;;;5048116;28;20204;-68
2021/12/10 08:29:19;;;;;;;1.20;1.08;;;3.80;99.90;;;;;;5047720;28;20275;-69
2021/12/10 08:31:46;;;;;;;1.23;1.13;;;3.80;99.90;;;;;;5047404;28;20198;-67
2021/12/10 08:34:13;;;;;;;1.67;0.82;;;3.80;99.90;;;;;;5054242;28;20227;-68
2021/12/10 08:36:40;;;;;;;4.57;2.38;;;3.80;99.90;;;;;;5045671;28;20205;-69
2021/12/10 08:39:11;;;;;;;1.00;1.00;;;3.80;99.90;;;;;;5050261;28;20219;-68
2021/12/10 08:41:38;;;;;;;2.22;0.95;;;3.80;99.90;;;;;;5040990;28;20213;-69
2021/12/10 08:44:06;;;;;;;1.50;1.25;;;3.80;99.90;;;;;;5048562;28;20633;-70
2021/12/10 08:46:34;;;;;;;2.58;1.13;;;3.80;99.90;;;;;;5046833;28;20683;-69
2021/12/10 08:49:02;;;;;;;0.82;0.80;;;3.80;99.90;;;;;;5052262;28;20727;-67
2021/12/10 08:51:32;;;;;;;1.67;0.80;;;3.80;99.90;;;;;;5045338;28;20197;-67
2021/12/10 08:54:00;;;;;;;2.55;1.42;;;3.90;99.90;;;;;;5049103;28;20216;-67
2021/12/10 08:56:29;;;;;;;1.13;0.95;;;3.90;99.90;;;;;;5049191;28;20219;-67
2021/12/10 08:58:58;;;;;;;1.25;1.15;;;3.90;99.90;;;;;;5049695;28;20232;-68
2021/12/10 09:01:27;;;;;;;4.35;1.83;;;3.90;99.90;;;;;;5043380;28;20210;-67
2021/12/10 09:03:57;;;;;;;3.10;1.17;;;4.00;99.90;;;;;;5046638;28;20203;-67
2021/12/10 09:06:26;;;;;;;1.60;1.50;;;4.00;99.90;;;;;;5046301;28;20206;-68
2021/12/10 09:08:54;;;;;;;1.77;1.63;;;4.00;99.90;;;;;;5047902;28;20235;-67
2021/12/10 09:11:21;;;;;;;2.90;2.80;;;4.00;99.90;;;;;;5045379;28;20202;-67
2021/12/10 09:13:50;;;;;;;0.55;0.50;;;4.00;99.90;;;;;;5045584;28;20364;-68
2021/12/10 09:16:24;;;;;;;2.40;2.00;;;4.00;99.90;;;;;;5060746;28;20205;-68
2021/12/10 09:18:52;;;;;;;0.82;0.82;;;4.00;99.90;;;;;;5052973;28;20217;-68
2021/12/10 09:21:19;;;;;;;1.30;1.30;;;4.00;99.90;;;;;;5052610;28;20274;-67
2021/12/10 09:23:46;;;;;;;0.82;0.82;;;4.00;99.90;;;;;;5048747;28;20197;-68
2021/12/10 09:26:15;;;;;;;1.05;0.95;;;4.00;99.90;;;;;;5051231;28;20927;-69
2021/12/10 09:28:44;;;;;;;0.70;0.70;;;4.00;99.90;;;;;;5044989;28;20220;-67
2021/12/10 09:31:15;;;;;;;1.30;1.10;;;4.00;99.90;;;;;;5040317;28;20286;-66
2021/12/10 09:33:42;;;;;;;3.35;2.40;;;4.00;99.90;;;;;;5041423;28;20201;-67
2021/12/10 09:36:10;;;;;;;1.05;0.98;;;4.10;99.90;;;;;;5046940;28;20289;-68
2021/12/10 09:38:37;;;;;;;1.48;1.48;;;4.00;99.90;;;;;;5048066;28;20225;-68
2021/12/10 09:41:07;;;;;;;1.05;0.95;;;4.00;99.90;;;;;;5048725;28;22005;-67
2021/12/10 09:43:35;;;;;;;1.17;0.98;;;4.10;99.90;;;;;;5042865;28;20206;-67
2021/12/10 09:46:04;;;;;;;1.33;0.77;;;4.10;99.90;;;;;;5047828;28;20202;-68
2021/12/10 09:48:32;;;;;;;0.98;0.88;;;4.20;99.90;;;;;;5045394;28;20228;-68
2021/12/10 09:51:02;;;;;;;0.60;0.52;;;4.10;99.90;;;;;;5050940;28;20286;-69
2021/12/10 09:53:31;;;;;;;1.00;1.00;;;4.20;99.90;;;;;;5051741;28;20210;-68
2021/12/10 09:56:00;;;;;;;3.08;1.73;;;4.20;99.90;;;;;;5048743;28;20241;-68
2021/12/10 09:58:28;;;;;;;0.90;0.90;;;4.20;99.90;;;;;;5042423;28;20317;-65
2021/12/10 10:00:58;;;;;;;1.10;1.10;;;4.20;99.90;;;;;;5038603;28;20206;-68
2021/12/10 10:03:27;;;;;;;1.90;1.80;;;4.10;99.90;;;;;;5045955;28;20197;-67
2021/12/10 10:05:56;;;;;;;3.45;1.48;;;4.20;99.90;;;;;;5044467;28;20206;-67
2021/12/10 10:08:25;;;;;;;1.80;1.38;;;4.10;99.90;;;;;;5043180;28;20218;-67
2021/12/10 10:10:55;;;;;;;0.80;0.80;;;4.20;99.90;;;;;;5048158;28;20205;-67
2021/12/10 10:13:27;;;;;;;0.77;0.77;;;4.20;99.90;;;;;;5046345;28;20197;-67
2021/12/10 10:15:58;;;;;;;1.15;1.08;;;4.30;99.90;;;;;;5046847;28;20253;-68
2021/12/10 10:18:26;;;;;;;0.75;0.70;;;4.30;99.90;;;;;;5046567;28;20222;-70
2021/12/10 10:20:57;;;;;;;0.85;0.85;;;4.40;99.90;;;;;;5047218;28;20217;-68
2021/12/10 10:23:25;;;;;;;3.22;1.27;;;4.40;99.90;;;;;;5046769;28;20220;-68
2021/12/10 10:25:56;;;;;;;2.72;1.98;;;4.50;99.90;;;;;;5047608;28;20191;-68
2021/12/10 10:28:23;;;;;;;1.23;0.80;;;4.60;99.90;;;;;;5050000;28;20217;-68
2021/12/10 10:30:57;;;;;;;0.80;0.80;;;4.60;99.90;;;;;;5047165;28;20205;-68
2021/12/10 10:33:24;;;;;;;2.70;1.52;;;4.60;99.90;;;;;;5043957;28;20198;-69
2021/12/10 10:35:58;;;;;;;1.63;1.10;;;4.60;99.90;;;;;;5053233;28;20225;-67
2021/12/10 10:38:26;;;;;;;1.08;1.08;;;4.70;99.90;;;;;;5045842;28;20301;-66
2021/12/10 10:40:55;;;;;;;3.85;1.48;;;4.70;99.90;;;;;;5045139;28;20248;-68
2021/12/10 10:43:23;;;;;;;1.42;1.23;;;4.70;99.90;;;;;;5046178;28;20216;-68
2021/12/10 10:45:50;;;;;;;1.35;0.93;;;4.70;99.90;;;;;;5046338;28;20200;-68
2021/12/10 10:48:18;;;;;;;0.88;0.88;;;4.80;99.90;;;;;;5046882;28;20217;-68
2021/12/10 10:50:51;;;;;;;0.60;0.60;;;4.80;99.90;;;;;;5047025;28;20202;-68
2021/12/10 10:53:24;;;;;;;0.47;0.45;;;4.80;99.90;;;;;;5050573;28;20206;-69
2021/12/10 10:55:53;;;;;;;1.45;1.30;;;4.90;99.90;;;;;;5049475;28;20314;-69
2021/12/10 10:58:22;;;;;;;0.73;0.73;;;4.90;99.90;;;;;;5057348;28;20237;-68
2021/12/10 11:00:59;;;;;;;0.73;0.60;;;4.90;99.90;;;;;;5049090;28;20212;-68
2021/12/10 11:03:35;;;;;;;1.08;0.70;;;5.00;99.90;;;;;;5052928;28;20202;-69
2021/12/10 11:06:05;;;;;;;1.20;1.10;;;5.00;99.90;;;;;;5048946;28;20264;-69
2021/12/10 11:08:38;;;;;;;2.45;1.23;;;5.10;99.90;;;;;;5053673;28;20226;-66
2021/12/10 11:11:08;;;;;;;0.98;0.88;;;5.10;99.90;;;;;;5050715;28;20227;-70
2021/12/10 11:13:35;;;;;;;1.25;0.60;;;5.00;99.90;;;;;;5048064;28;20310;-70
2021/12/10 11:16:04;;;;;;;1.42;0.90;;;5.00;99.90;;;;;;5046225;28;21145;-66
2021/12/10 11:18:44;;;;;;;3.53;0.70;;;5.00;99.90;;;;;;5055320;28;20279;-68
2021/12/10 11:21:11;;;;;;;0.60;0.60;;;5.10;99.90;;;;;;5053268;28;20205;-67
2021/12/10 11:23:42;;;;;;;0.77;0.65;;;5.10;99.90;;;;;;5051304;28;20258;-68
2021/12/10 11:26:09;;;;;;;1.70;1.60;;;5.10;99.90;;;;;;5045931;28;20213;-65
2021/12/10 11:28:40;;;;;;;2.50;2.10;;;5.20;99.90;;;;;;5057261;28;20235;-68
2021/12/10 11:31:10;;;;;;;0.65;0.65;;;5.10;99.90;;;;;;5053368;28;20248;-66
2021/12/10 11:33:42;;;;;;;0.82;0.82;;;5.20;99.90;;;;;;5050627;28;20206;-68
2021/12/10 11:36:12;;;;;;;1.92;1.35;;;5.20;99.90;;;;;;5048827;28;20985;-67
2021/12/10 11:38:44;;;;;;;1.00;1.00;;;5.20;99.90;;;;;;5049817;28;20217;-69
2021/12/10 11:41:14;;;;;;;2.55;1.02;;;5.30;99.90;;;;;;5047720;28;20260;-67
2021/12/10 11:43:52;;;;;;;0.70;0.70;;;5.30;99.90;;;;;;5051833;28;20679;-70
2021/12/10 11:46:44;;;;;;;0.90;0.70;;;5.30;99.90;;;;;;5046222;28;20754;-70
2021/12/10 11:49:16;;;;;;;0.50;0.50;;;5.30;99.90;;;;;;5050123;28;20237;-67
2021/12/10 11:51:47;;;;;;;0.93;0.93;;;5.30;99.90;;;;;;5049490;28;20259;-69
2021/12/10 11:54:25;;;;;;;0.70;0.68;;;5.30;99.90;;;;;;5049435;28;20259;-68
2021/12/10 11:56:57;;;;;;;1.08;0.50;;;5.20;99.90;;;;;;5043460;28;20334;-67
2021/12/10 11:59:27;;;;;;;0.57;0.57;;;5.20;99.90;;;;;;5070301;22;20233;-69
2021/12/10 12:01:57;;;;;;;0.95;0.95;;;5.20;99.90;;;;;;5075743;28;20295;-69
2021/12/10 12:04:28;;;;;;;1.25;0.90;;;5.20;99.90;;;;;;5080342;28;20224;-68
2021/12/10 12:07:25;;;;;;;0.70;0.60;;;5.20;99.90;;;;;;5083643;28;20200;-68
2021/12/10 12:09:55;;;;;;;0.90;0.60;;;5.20;99.90;;;;;;5085165;28;20370;-69
2021/12/10 12:12:26;;;;;;;0.73;0.73;;;5.20;99.90;;;;;;5066954;28;20220;-68
2021/12/10 12:15:02;;;;;;;1.60;0.70;;;5.20;99.90;;;;;;5063460;28;20226;-68
2021/12/10 12:17:31;;;;;;;1.25;1.15;;;5.30;99.90;;;;;;5072007;28;20213;-68
2021/12/10 12:19:58;;;;;;;1.88;1.33;;;5.20;99.90;;;;;;5070816;28;20351;-68
2021/12/10 12:25:28;;;;;;;0.55;0.40;;;5.20;99.90;;;;;;5062791;28;20311;-68
2021/12/10 12:28:02;;;;;;;0.73;0.60;;;5.20;99.90;;;;;;5062311;28;20280;-69
2021/12/10 12:30:29;;;;;;;1.85;1.35;;;5.20;99.90;;;;;;5065926;28;20225;-68
2021/12/10 12:32:56;;;;;;;1.27;1.20;;;5.20;99.90;;;;;;5067800;28;20948;-75
2021/12/10 12:35:29;;;;;;;1.27;0.90;;;5.20;99.90;;;;;;5065304;28;20218;-66
2021/12/10 12:38:08;;;;;;;0.80;0.80;;;5.20;99.90;;;;;;5066500;28;20204;-66
2021/12/10 12:40:38;;;;;;;0.88;0.60;;;5.10;99.90;;;;;;5066273;28;20221;-66
2021/12/10 12:43:06;;;;;;;4.00;1.00;;;5.00;99.90;;;;;;5067954;28;20201;-66
2021/12/10 12:45:35;;;;;;;1.20;1.10;;;5.00;99.90;;;;;;5070003;28;20251;-66
2021/12/10 12:48:07;;;;;;;1.58;1.05;;;5.00;99.90;;;;;;5065557;28;20314;-66
2021/12/10 12:50:36;;;;;;;1.02;0.82;;;5.00;99.90;;;;;;5067724;28;20230;-66
2021/12/10 12:53:09;;;;;;;0.75;0.75;;;4.90;99.90;;;;;;5069590;28;20247;-66
2021/12/10 12:55:42;;;;;;;1.48;0.75;;;4.90;99.90;;;;;;5068920;28;20359;-67
2021/12/10 12:58:20;;;;;;;1.05;0.73;;;4.80;99.90;;;;;;5065833;28;20267;-66
2021/12/10 13:00:54;;;;;;;1.10;1.10;;;4.80;99.90;;;;;;5067732;28;20300;-67
2021/12/10 13:03:30;;;;;;;0.80;0.80;;;4.80;99.90;;;;;;5066216;28;20197;-66
2021/12/10 13:05:59;;;;;;;0.77;0.77;;;4.70;99.90;;;;;;5072125;28;20239;-66
2021/12/10 13:08:31;;;;;;;0.93;0.93;;;4.60;99.90;;;;;;5074624;28;20291;-66
2021/12/10 13:11:19;;;;;;;1.38;1.27;;;4.60;99.90;;;;;;5081910;28;20303;-66
2021/12/10 13:13:51;;;;;;;1.10;1.00;;;4.50;99.90;;;;;;5073375;28;20232;-66
2021/12/10 13:16:32;;;;;;;0.80;0.80;;;4.50;99.90;;;;;;5078982;28;20293;-67
2021/12/10 13:18:59;;;;;;;0.57;0.50;;;4.50;99.90;;;;;;5072352;28;20210;-66